Time;durP1;ratioP1;P1;durP2;ratioP2;P2;SDS_P1;SDS_P2;PMS_P1;PMS_P2;Temp;Humidity;BMP_temperature;BMP_pressure;BME280_temperature;BME280_humidity;BME280_pressure;Samples;Min_cycle;Max_cycle;Signal;HPM_P1;HPM_P2
2023/01/01 00:00:13;;;;;;;1.58;0.60;;;;;;;10.22;95.67;100300.56;5027883;28;20402;-58
2023/01/01 00:02:39;;;;;;;3.05;0.40;;;;;;;10.20;95.51;100300.75;5028939;28;20021;-58
2023/01/01 00:05:06;;;;;;;2.15;0.40;;;;;;;10.25;94.68;100308.97;5014127;28;20025;-58
2023/01/01 00:07:33;;;;;;;3.78;0.47;;;;;;;10.19;94.92;100304.47;5018773;28;20508;-58
2023/01/01 00:12:44;;;;;;;6.22;0.68;;;;;;;10.25;95.38;100295.59;5013188;28;20056;-59
2023/01/01 00:15:10;;;;;;;1.42;0.60;;;;;;;10.27;96.00;100298.03;5015106;28;20373;-58
2023/01/01 00:17:36;;;;;;;0.90;0.45;;;;;;;10.30;96.61;100290.41;5011688;28;20029;-60
2023/01/01 00:20:03;;;;;;;1.83;0.50;;;;;;;10.22;96.34;100290.66;5011932;28;20283;-59
2023/01/01 00:22:29;;;;;;;4.00;0.85;;;;;;;10.31;95.08;100300.06;5018457;28;20391;-58
2023/01/01 00:24:55;;;;;;;3.20;0.85;;;;;;;10.36;95.93;100303.97;5031935;28;20023;-58
2023/01/01 00:27:21;;;;;;;2.10;1.15;;;;;;;10.31;97.57;100296.59;5019749;28;20121;-59
2023/01/01 00:29:47;;;;;;;4.20;0.85;;;;;;;10.23;97.73;100313.72;5011950;28;20102;-58
2023/01/01 00:32:14;;;;;;;2.00;0.73;;;;;;;10.22;98.14;100308.56;5015464;28;20535;-58
2023/01/01 00:34:40;;;;;;;7.25;0.90;;;;;;;10.21;98.13;100317.59;5031650;28;20076;-58
2023/01/01 00:37:06;;;;;;;2.80;0.80;;;;;;;10.10;98.53;100311.09;5029912;28;20026;-58
2023/01/01 00:39:33;;;;;;;3.30;0.90;;;;;;;10.05;98.50;100308.28;5031319;28;20060;-58
2023/01/01 00:41:59;;;;;;;2.20;0.80;;;;;;;10.09;98.62;100328.19;5027512;28;20030;-58
2023/01/01 00:44:25;;;;;;;4.10;0.95;;;;;;;9.99;98.20;100319.81;5024165;28;20029;-58
2023/01/01 00:46:51;;;;;;;1.83;0.82;;;;;;;10.04;97.80;100322.66;5022488;28;20021;-58
2023/01/01 00:49:17;;;;;;;2.85;1.17;;;;;;;9.99;98.02;100325.16;5021709;28;20097;-58
2023/01/01 00:51:44;;;;;;;4.07;1.10;;;;;;;10.02;97.56;100333.56;5030985;28;20428;-57
2023/01/01 00:54:10;;;;;;;5.35;1.50;;;;;;;10.05;96.75;100329.66;5025886;28;20400;-58
2023/01/01 00:56:36;;;;;;;3.85;1.48;;;;;;;10.08;96.16;100328.41;5023991;28;20475;-58
2023/01/01 00:59:03;;;;;;;11.27;1.00;;;;;;;9.98;96.73;100327.00;5023449;28;20034;-58
2023/01/01 01:01:29;;;;;;;3.47;0.93;;;;;;;10.03;96.14;100321.84;5029104;28;20113;-58
2023/01/01 01:03:56;;;;;;;3.58;0.80;;;;;;;10.04;96.21;100322.66;5028168;28;20140;-58
2023/01/01 01:06:23;;;;;;;2.05;0.68;;;;;;;10.07;95.59;100316.06;5015685;28;20345;-58
2023/01/01 01:08:49;;;;;;;4.32;0.80;;;;;;;10.10;94.76;100321.78;5020577;28;20049;-58
2023/01/01 01:11:20;;;;;;;2.70;0.70;;;;;;;10.00;94.72;100324.16;5016421;28;20034;-57
2023/01/01 01:13:49;;;;;;;2.42;0.82;;;;;;;10.03;95.14;100313.81;5016645;28;20037;-58
2023/01/01 01:16:18;;;;;;;3.25;1.05;;;;;;;10.12;94.50;100318.94;5014727;28;20069;-58
2023/01/01 01:18:45;;;;;;;2.95;0.90;;;;;;;10.12;93.17;100322.41;5014338;28;20029;-58
2023/01/01 01:21:17;;;;;;;1.85;0.70;;;;;;;10.22;93.03;100324.63;5021249;28;20021;-59
2023/01/01 01:23:43;;;;;;;1.50;0.68;;;;;;;10.19;92.83;100325.84;5022507;28;20380;-59
2023/01/01 01:26:18;;;;;;;1.98;0.80;;;;;;;10.20;91.26;100322.16;5019379;28;20036;-62
2023/01/01 01:28:45;;;;;;;1.13;0.63;;;;;;;10.30;90.32;100325.19;5016876;28;20108;-60
2023/01/01 01:31:12;;;;;;;2.38;1.02;;;;;;;10.29;89.60;100318.22;5017670;28;20034;-66
2023/01/01 01:33:38;;;;;;;2.58;0.90;;;;;;;10.30;90.11;100325.19;5001804;28;20030;-73
2023/01/01 01:36:05;;;;;;;4.15;1.40;;;;;;;10.32;90.05;100327.66;5023792;28;20055;-73
2023/01/01 01:38:32;;;;;;;1.20;0.63;;;;;;;10.39;89.82;100336.47;5025445;28;20479;-72
2023/01/01 01:40:58;;;;;;;2.42;0.82;;;;;;;10.32;89.54;100333.00;5034341;28;20031;-68
2023/01/01 01:43:25;;;;;;;3.08;1.70;;;;;;;10.43;90.05;100336.84;5021080;28;20037;-73
2023/01/01 01:45:58;;;;;;;0.98;0.55;;;;;;;10.43;90.06;100334.16;5015214;28;20543;-66
2023/01/01 01:48:24;;;;;;;2.28;0.90;;;;;;;10.45;88.83;100335.59;5014293;28;20041;-73
2023/01/01 01:50:54;;;;;;;1.95;0.73;;;;;;;10.39;89.23;100327.63;5024894;28;20021;-70
2023/01/01 01:53:28;;;;;;;1.25;0.63;;;;;;;10.40;89.43;100343.44;5014964;28;20041;-61
2023/01/01 01:56:01;;;;;;;2.30;0.52;;;;;;;10.37;89.21;100343.88;5028325;28;20171;-60
2023/01/01 01:58:30;;;;;;;5.63;0.63;;;;;;;10.43;87.45;100347.53;5032113;28;20092;-60
2023/01/01 02:01:16;;;;;;;2.42;1.05;;;;;;;10.41;87.76;100347.75;4995991;28;20166;-60
2023/01/01 02:03:45;;;;;;;2.20;0.73;;;;;;;10.45;87.58;100365.03;4994252;28;20515;-60
2023/01/01 02:06:13;;;;;;;2.33;0.95;;;;;;;10.44;87.52;100367.94;4992084;28;20077;-60
2023/01/01 02:08:39;;;;;;;7.07;0.65;;;;;;;10.49;87.06;100368.91;5007587;28;20475;-60
2023/01/01 02:11:05;;;;;;;2.80;0.60;;;;;;;10.43;87.67;100377.78;4988340;28;20031;-60
2023/01/01 02:13:32;;;;;;;2.42;1.17;;;;;;;10.47;86.86;100376.31;4999691;28;20116;-60
2023/01/01 02:16:11;;;;;;;0.90;0.60;;;;;;;10.43;86.90;100379.63;4993851;28;20459;-65
2023/01/01 02:18:51;;;;;;;0.90;0.60;;;;;;;10.56;85.98;100384.91;4997265;28;20102;-65
2023/01/01 02:21:43;;;;;;;2.55;1.23;;;;;;;10.49;87.16;100381.44;4990875;28;20081;-63
2023/01/01 02:24:36;;;;;;;1.50;0.80;;;;;;;10.48;87.07;100379.81;4996969;28;20069;-64
2023/01/01 02:27:30;;;;;;;0.90;0.50;;;;;;;10.57;86.27;100382.00;4992025;28;20038;-60
2023/01/01 02:30:04;;;;;;;1.25;0.57;;;;;;;10.57;86.03;100387.38;5007065;28;20531;-65
2023/01/01 02:32:57;;;;;;;0.85;0.60;;;;;;;10.58;86.10;100388.19;5010229;28;20038;-65
2023/01/01 02:35:34;;;;;;;1.73;0.50;;;;;;;10.47;84.25;100370.16;4999808;28;20100;-65
2023/01/01 02:38:06;;;;;;;0.65;0.30;;;;;;;10.67;83.31;100370.84;4995889;28;20041;-65
2023/01/01 02:40:37;;;;;;;0.65;0.40;;;;;;;10.72;80.61;100368.31;5030685;28;20025;-67
2023/01/01 02:43:05;;;;;;;0.98;0.30;;;;;;;10.83;80.15;100364.94;5033575;28;20028;-65
2023/01/01 02:45:32;;;;;;;0.60;0.40;;;;;;;11.06;77.75;100390.28;5027580;28;20030;-65
2023/01/01 02:48:06;;;;;;;0.95;0.38;;;;;;;11.16;77.77;100413.88;5014195;28;20049;-64
2023/01/01 02:50:34;;;;;;;0.30;0.28;;;;;;;11.27;76.40;100426.53;5018031;28;20426;-64
2023/01/01 02:53:09;;;;;;;0.45;0.40;;;;;;;11.25;76.98;100431.31;5013409;28;20068;-64
2023/01/01 02:55:52;;;;;;;0.80;0.38;;;;;;;11.23;78.64;100428.03;5013607;28;20078;-65
2023/01/01 03:02:00;;;;;;;1.27;0.50;;;;;;;11.15;80.29;100413.03;5013199;28;20041;-65
2023/01/01 03:04:40;;;;;;;1.08;0.60;;;;;;;11.12;80.78;100434.94;5005558;28;20045;-64
2023/01/01 03:07:36;;;;;;;2.45;0.60;;;;;;;11.07;80.27;100424.06;5012752;28;20476;-65
2023/01/01 03:10:14;;;;;;;1.15;0.60;;;;;;;11.14;79.97;100437.38;4983042;28;20050;-64
2023/01/01 03:12:53;;;;;;;3.00;0.68;;;;;;;11.09;80.30;100443.38;4991052;28;20034;-65
2023/01/01 03:15:27;;;;;;;1.27;0.40;;;;;;;11.13;80.37;100449.97;4977912;28;20047;-64
2023/01/01 03:18:08;;;;;;;1.43;0.50;;;;;;;11.18;80.41;100447.44;4975661;28;20092;-64
2023/01/01 03:20:39;;;;;;;1.42;0.50;;;;;;;11.09;80.68;100454.91;4975971;28;20051;-65
2023/01/01 03:23:17;;;;;;;0.60;0.43;;;;;;;11.19;79.36;100454.44;4979052;28;20101;-64
2023/01/01 03:25:49;;;;;;;1.73;0.50;;;;;;;11.22;79.28;100469.25;4989424;28;20034;-64
2023/01/01 03:28:24;;;;;;;1.92;0.52;;;;;;;11.16;79.45;100470.13;4989907;28;20554;-64
2023/01/01 03:30:52;;;;;;;2.58;0.73;;;;;;;11.16;80.16;100476.31;4988717;28;20044;-64
2023/01/01 03:33:32;;;;;;;1.85;0.75;;;;;;;11.29;79.48;100484.25;4990018;28;20023;-64
2023/01/01 03:36:06;;;;;;;0.80;0.47;;;;;;;11.37;78.53;100486.63;4978877;28;20063;-65
2023/01/01 03:38:48;;;;;;;2.67;0.65;;;;;;;11.27;78.08;100493.50;4970895;28;20035;-65
2023/01/01 03:41:45;;;;;;;1.00;0.82;;;;;;;11.21;79.83;100497.06;5005854;28;20052;-64
2023/01/01 03:44:27;;;;;;;2.95;1.05;;;;;;;11.28;79.17;100496.00;5029896;28;20065;-64
2023/01/01 03:46:54;;;;;;;2.70;0.98;;;;;;;11.22;80.09;100496.88;5026662;28;20022;-65
2023/01/01 03:49:21;;;;;;;2.28;0.98;;;;;;;11.37;78.84;100509.91;5019562;28;20460;-64
2023/01/01 03:52:01;;;;;;;1.83;0.68;;;;;;;11.33;79.68;100512.25;5031640;28;20017;-64
2023/01/01 03:54:52;;;;;;;3.78;1.10;;;;;;;11.35;79.24;100518.19;5029238;28;20442;-64
2023/01/01 03:57:27;;;;;;;2.35;0.68;;;;;;;11.20;79.77;100515.00;5029477;28;20045;-64
2023/01/01 04:00:06;;;;;;;6.88;1.08;;;;;;;11.25;79.53;100525.88;5030282;28;20034;-64
2023/01/01 04:02:55;;;;;;;7.95;1.20;;;;;;;11.17;81.17;100528.03;5032204;28;20021;-64
2023/01/01 04:05:24;;;;;;;3.03;1.10;;;;;;;11.08;82.05;100533.63;5017677;28;20045;-64
2023/01/01 04:07:51;;;;;;;4.57;0.90;;;;;;;10.93;83.43;100530.44;5029679;28;20434;-64
2023/01/01 04:10:18;;;;;;;4.22;0.90;;;;;;;11.02;83.38;100534.50;5016678;28;20380;-64
2023/01/01 04:12:51;;;;;;;3.10;1.20;;;;;;;10.97;83.67;100530.84;5015246;28;20021;-64
2023/01/01 04:15:19;;;;;;;4.53;1.58;;;;;;;10.86;84.83;100537.69;5024771;28;20075;-64
2023/01/01 04:17:45;;;;;;;3.17;1.30;;;;;;;10.94;84.46;100536.59;5031138;28;20033;-63
2023/01/01 04:20:12;;;;;;;2.08;1.10;;;;;;;10.84;84.68;100540.59;5029418;28;20112;-63
2023/01/01 04:22:39;;;;;;;2.65;1.02;;;;;;;10.80;84.78;100542.06;5031544;28;20061;-64
2023/01/01 04:25:07;;;;;;;2.25;1.10;;;;;;;10.76;84.88;100542.69;5030207;28;20060;-63
2023/01/01 04:27:33;;;;;;;4.65;1.40;;;;;;;10.78;84.78;100532.59;5030325;28;20037;-63
2023/01/01 04:29:59;;;;;;;5.63;1.45;;;;;;;10.86;85.11;100550.28;5029038;28;20075;-63
2023/01/01 04:32:25;;;;;;;7.85;1.70;;;;;;;10.86;84.74;100550.28;5031705;28;20025;-63
2023/01/01 04:34:52;;;;;;;2.75;1.10;;;;;;;10.88;84.44;100540.16;5029629;28;20037;-63
2023/01/01 04:37:18;;;;;;;3.17;1.10;;;;;;;10.83;84.46;100538.16;5017917;28;20045;-63
2023/01/01 04:39:44;;;;;;;3.53;1.38;;;;;;;10.73;85.01;100546.63;5012183;28;20034;-63
2023/01/01 04:42:10;;;;;;;2.20;0.93;;;;;;;10.74;84.92;100542.09;5020558;28;20082;-63
2023/01/01 04:44:37;;;;;;;2.40;1.13;;;;;;;10.63;85.37;100550.81;5032499;28;20041;-63
2023/01/01 04:47:03;;;;;;;2.97;1.30;;;;;;;10.62;85.84;100550.00;5034425;28;20040;-63
2023/01/01 04:49:29;;;;;;;3.92;1.45;;;;;;;10.68;85.46;100559.00;5032940;28;20034;-63
2023/01/01 04:51:56;;;;;;;2.63;1.85;;;;;;;10.69;85.25;100560.66;5031258;28;20105;-63
2023/01/01 04:54:22;;;;;;;1.90;1.60;;;;;;;10.75;84.84;100563.28;5016527;28;20033;-63
2023/01/01 04:56:48;;;;;;;3.20;1.75;;;;;;;10.69;84.65;100576.72;5027992;28;20045;-63
2023/01/01 04:59:14;;;;;;;5.35;1.77;;;;;;;10.79;83.75;100569.06;5031197;28;21222;-63
2023/01/01 05:01:40;;;;;;;3.70;1.33;;;;;;;10.82;83.55;100579.31;5033134;28;20052;-64
2023/01/01 05:04:07;;;;;;;2.22;1.02;;;;;;;10.69;83.81;100577.53;5028209;28;20030;-63
2023/01/01 05:06:33;;;;;;;3.13;1.30;;;;;;;10.72;83.83;100574.44;5015325;28;20476;-63
2023/01/01 05:09:00;;;;;;;3.13;1.33;;;;;;;10.71;84.23;100574.63;5018057;28;20356;-63
2023/01/01 05:11:28;;;;;;;2.05;1.15;;;;;;;10.67;83.80;100568.91;5032910;28;20068;-63
2023/01/01 05:13:57;;;;;;;6.68;1.13;;;;;;;10.63;84.27;100570.34;5017017;28;20030;-63
2023/01/01 05:16:26;;;;;;;1.98;1.00;;;;;;;10.84;83.59;100575.41;5032237;28;20025;-64
2023/01/01 05:18:53;;;;;;;1.90;0.90;;;;;;;10.81;82.90;100575.00;5018854;28;20503;-63
2023/01/01 05:21:27;;;;;;;1.92;1.10;;;;;;;10.98;81.71;100573.47;5014995;28;20052;-63
2023/01/01 05:23:55;;;;;;;1.52;1.20;;;;;;;10.73;82.90;100578.75;5022799;28;20468;-63
2023/01/01 05:26:23;;;;;;;1.83;1.20;;;;;;;10.87;82.33;100570.66;5034632;28;20036;-63
2023/01/01 05:28:50;;;;;;;4.28;1.10;;;;;;;10.97;82.37;100573.69;5031988;28;20044;-63
2023/01/01 05:31:20;;;;;;;2.50;1.20;;;;;;;10.65;82.58;100578.97;5034161;28;20029;-63
2023/01/01 05:33:47;;;;;;;2.60;1.13;;;;;;;10.57;83.17;100579.25;5026697;28;20025;-63
2023/01/01 05:36:22;;;;;;;2.72;1.00;;;;;;;10.63;83.77;100586.41;5034444;28;20026;-64
2023/01/01 05:38:49;;;;;;;1.83;1.08;;;;;;;10.83;83.73;100591.69;5031458;28;20126;-63
2023/01/01 05:41:17;;;;;;;3.58;0.80;;;;;;;11.00;82.65;100592.00;5034382;28;20034;-64
2023/01/01 05:43:43;;;;;;;2.33;0.93;;;;;;;10.99;81.94;100593.03;5026903;28;20502;-63
2023/01/01 05:46:13;;;;;;;1.38;0.85;;;;;;;11.11;82.35;100607.41;5028033;28;20037;-64
2023/01/01 05:48:40;;;;;;;2.25;1.27;;;;;;;11.14;82.51;100606.13;5014142;28;20018;-64
2023/01/01 05:51:12;;;;;;;1.27;0.80;;;;;;;11.12;82.92;100603.69;5015621;28;20121;-64
2023/01/01 05:53:38;;;;;;;3.03;0.90;;;;;;;11.28;82.63;100602.34;5033928;28;20119;-64
2023/01/01 05:56:06;;;;;;;2.13;1.00;;;;;;;11.25;82.29;100606.25;5031589;28;20440;-64
2023/01/01 05:58:34;;;;;;;1.67;0.90;;;;;;;11.26;82.64;100610.59;5030722;28;20471;-64
2023/01/01 06:01:12;;;;;;;3.35;1.20;;;;;;;11.35;nan;100603.94;5031503;28;20603;-64
2023/01/01 06:03:40;;;;;;;4.90;1.42;;;;;;;11.30;82.88;100609.13;5033821;28;20499;-64
2023/01/01 06:06:08;;;;;;;2.35;1.52;;;;;;;11.36;82.84;100602.06;5031827;28;20116;-64
2023/01/01 06:08:34;;;;;;;2.92;1.48;;;;;;;11.31;83.05;100604.59;5033327;28;20104;-64
2023/01/01 06:11:02;;;;;;;4.65;1.60;;;;;;;11.25;83.05;100616.97;5031676;28;20029;-64
2023/01/01 06:13:29;;;;;;;1.70;1.45;;;;;;;11.27;83.18;100622.13;5033585;28;20057;-64
2023/01/01 06:15:57;;;;;;;3.05;1.58;;;;;;;11.33;82.93;100621.28;5031460;28;20017;-64
2023/01/01 06:18:24;;;;;;;3.92;1.50;;;;;;;11.63;81.95;100627.66;5022417;28;20121;-64
2023/01/01 06:20:51;;;;;;;3.35;1.80;;;;;;;11.56;82.05;100636.78;5015803;28;20026;-64
2023/01/01 06:23:18;;;;;;;2.70;1.70;;;;;;;11.48;82.42;100643.22;5031774;28;20048;-63
2023/01/01 06:25:44;;;;;;;1.98;1.40;;;;;;;11.49;82.68;100646.72;5031581;28;20491;-64
2023/01/01 06:28:10;;;;;;;2.53;1.17;;;;;;;11.49;82.50;100644.88;5014225;28;20073;-64
2023/01/01 06:30:37;;;;;;;4.72;1.50;;;;;;;11.41;82.94;100649.66;5026825;28;20045;-64
2023/01/01 06:33:04;;;;;;;1.70;1.13;;;;;;;11.54;82.04;100644.22;5032962;28;20033;-64
2023/01/01 06:35:30;;;;;;;1.45;1.13;;;;;;;11.98;79.50;100651.31;5031025;28;20029;-63
2023/01/01 06:37:59;;;;;;;3.30;1.58;;;;;;;11.79;79.05;100647.75;5038992;23;20491;-64
2023/01/01 06:40:25;;;;;;;5.97;1.98;;;;;;;11.60;80.11;100664.78;5033031;28;20037;-63
2023/01/01 06:42:51;;;;;;;2.25;1.33;;;;;;;11.55;80.58;100661.97;5033474;28;20022;-63
2023/01/01 06:45:17;;;;;;;3.08;1.30;;;;;;;11.64;80.69;100661.44;5032777;28;20037;-63
2023/01/01 06:47:43;;;;;;;3.58;1.52;;;;;;;11.91;78.69;100665.84;5032489;28;20029;-63
2023/01/01 06:50:10;;;;;;;2.55;1.35;;;;;;;11.67;79.77;100668.25;5032643;28;20488;-63
2023/01/01 06:52:36;;;;;;;2.10;1.25;;;;;;;11.59;80.41;100658.59;5018696;28;20117;-63
2023/01/01 06:55:02;;;;;;;2.00;1.60;;;;;;;11.53;80.69;100664.00;5020453;28;20502;-63
2023/01/01 06:57:29;;;;;;;3.80;1.80;;;;;;;11.48;80.80;100672.69;5025130;28;20038;-63
2023/01/01 06:59:55;;;;;;;3.70;1.65;;;;;;;11.47;80.97;100670.25;5019303;28;20422;-63
2023/01/01 07:02:21;;;;;;;3.63;1.83;;;;;;;11.45;80.81;100678.50;5026260;28;20464;-63
2023/01/01 07:04:47;;;;;;;3.42;1.83;;;;;;;11.42;80.78;100678.09;5017329;28;20057;-63
2023/01/01 07:07:14;;;;;;;6.05;2.42;;;;;;;11.53;79.88;100680.91;5031393;28;20482;-63
2023/01/01 07:09:40;;;;;;;6.20;2.30;;;;;;;11.55;79.80;100694.13;5032629;28;20033;-63
2023/01/01 07:12:06;;;;;;;4.45;2.17;;;;;;;11.31;80.49;100691.16;5032898;28;20028;-63
2023/01/01 07:14:32;;;;;;;2.95;1.60;;;;;;;11.21;80.75;100690.78;5032562;28;20034;-63
2023/01/01 07:16:59;;;;;;;5.63;2.10;;;;;;;11.14;80.76;100692.69;5020345;28;20565;-63
2023/01/01 07:19:25;;;;;;;4.97;2.80;;;;;;;10.89;82.43;100689.09;4994299;28;20294;-63
2023/01/01 07:21:53;;;;;;;3.78;2.22;;;;;;;10.89;82.00;100692.59;5006576;28;20113;-63
2023/01/01 07:24:20;;;;;;;5.65;2.75;;;;;;;10.98;81.17;100701.19;4993346;28;20029;-63
2023/01/01 07:26:47;;;;;;;3.15;2.40;;;;;;;10.86;80.87;100701.03;5010078;28;21069;-63
2023/01/01 07:29:15;;;;;;;4.93;3.15;;;;;;;10.71;81.25;100701.28;5012547;28;20400;-63
2023/01/01 07:31:43;;;;;;;5.70;2.65;;;;;;;10.73;81.12;100707.25;5009265;28;20029;-63
2023/01/01 07:34:13;;;;;;;7.72;3.47;;;;;;;10.61;81.46;100714.28;4993024;28;20019;-63
2023/01/01 07:36:40;;;;;;;6.63;3.00;;;;;;;10.62;81.11;100715.09;5007645;28;20037;-63
2023/01/01 07:39:06;;;;;;;6.85;2.80;;;;;;;10.86;80.81;100717.09;5012409;28;20480;-63
2023/01/01 07:41:32;;;;;;;11.32;3.20;;;;;;;10.62;81.51;100707.91;5011264;28;20038;-63
2023/01/01 07:43:59;;;;;;;8.80;2.85;;;;;;;10.51;82.42;100714.72;5012134;28;20078;-63
2023/01/01 07:46:25;;;;;;;11.55;3.20;;;;;;;10.44;83.52;100721.13;5005611;28;20069;-63
2023/01/01 07:48:51;;;;;;;6.32;2.75;;;;;;;10.39;83.62;100713.72;4992399;28;20030;-63
2023/01/01 07:51:18;;;;;;;6.85;2.90;;;;;;;10.59;83.40;100713.66;5008885;28;20034;-63
2023/01/01 07:53:44;;;;;;;7.65;3.20;;;;;;;10.49;83.42;100721.28;5010497;28;20533;-63
2023/01/01 07:56:10;;;;;;;8.50;3.80;;;;;;;10.38;84.07;100716.56;5014288;28;20050;-64
2023/01/01 07:58:40;;;;;;;8.15;3.22;;;;;;;10.38;84.37;100716.56;5010933;28;20496;-63
2023/01/01 08:01:10;;;;;;;8.25;2.97;;;;;;;10.24;85.53;100711.25;5011754;28;20026;-63
2023/01/01 08:03:36;;;;;;;10.45;3.88;;;;;;;10.28;85.57;100703.63;4994483;28;20026;-63
2023/01/01 08:06:11;;;;;;;10.98;3.13;;;;;;;10.47;85.12;100705.44;5003859;28;20038;-63
2023/01/01 08:08:38;;;;;;;6.18;2.90;;;;;;;10.61;84.42;100698.22;4992467;28;20035;-63
2023/01/01 08:11:04;;;;;;;9.20;4.18;;;;;;;10.59;84.62;100700.28;5007154;28;20030;-63
2023/01/01 08:13:31;;;;;;;10.77;4.75;;;;;;;10.56;84.59;100701.53;4998107;28;20394;-63
2023/01/01 08:15:58;;;;;;;15.05;7.85;;;;;;;10.24;85.99;100703.22;5003496;28;20034;-63
2023/01/01 08:18:24;;;;;;;23.30;11.52;;;;;;;10.14;86.82;100697.44;5000149;28;20092;-62
2023/01/01 08:20:51;;;;;;;19.08;12.57;;;;;;;10.13;87.43;100694.97;5011177;28;20033;-63
2023/01/01 08:23:17;;;;;;;20.42;13.30;;;;;;;10.16;86.93;100700.75;5011367;28;20034;-62
2023/01/01 08:25:43;;;;;;;15.98;10.65;;;;;;;10.12;87.15;100696.81;5011915;28;20084;-62
2023/01/01 08:28:09;;;;;;;27.48;10.02;;;;;;;10.19;86.80;100689.59;5000449;28;20119;-62
2023/01/01 08:30:36;;;;;;;11.60;6.97;;;;;;;10.17;86.49;100689.00;5012030;28;20026;-62
2023/01/01 08:33:02;;;;;;;10.85;5.28;;;;;;;10.15;85.72;100685.69;5011239;28;20018;-62
2023/01/01 08:35:28;;;;;;;10.38;5.55;;;;;;;10.13;86.18;100689.63;5011315;28;20105;-62
2023/01/01 08:37:54;;;;;;;8.30;4.43;;;;;;;10.05;86.21;100693.34;5010278;28;20048;-63
2023/01/01 08:40:21;;;;;;;9.82;4.15;;;;;;;9.90;86.61;100700.72;5011934;28;20030;-63
2023/01/01 08:42:47;;;;;;;8.30;3.28;;;;;;;9.95;86.32;100692.91;5010495;28;20029;-63
2023/01/01 08:45:13;;;;;;;6.82;3.15;;;;;;;9.89;86.59;100701.75;5011521;28;20052;-63
2023/01/01 08:47:39;;;;;;;5.88;2.67;;;;;;;9.93;85.44;100709.13;5011047;28;20036;-63
2023/01/01 08:50:06;;;;;;;6.05;2.38;;;;;;;9.75;85.81;100699.06;5011582;28;20018;-62
2023/01/01 08:52:32;;;;;;;8.85;2.53;;;;;;;9.89;85.49;100699.91;5009844;28;20060;-62
2023/01/01 08:54:59;;;;;;;6.68;1.80;;;;;;;9.81;85.60;100704.63;5011552;28;20488;-62
2023/01/01 08:57:30;;;;;;;5.60;1.90;;;;;;;9.87;85.38;100706.47;5008170;28;20072;-63
2023/01/01 08:59:56;;;;;;;7.40;1.63;;;;;;;9.91;84.86;100703.19;5011805;28;20358;-62
2023/01/01 09:02:22;;;;;;;6.45;1.90;;;;;;;9.94;84.52;100701.97;5005381;28;20033;-63
2023/01/01 09:04:49;;;;;;;5.10;1.75;;;;;;;9.82;84.99;100698.25;4991991;28;20023;-62
2023/01/01 09:07:15;;;;;;;4.20;1.45;;;;;;;9.76;84.59;100695.34;4997590;28;20400;-62
2023/01/01 09:09:41;;;;;;;6.20;1.50;;;;;;;9.69;84.91;100697.19;5011356;28;20026;-62
2023/01/01 09:12:10;;;;;;;5.93;1.92;;;;;;;9.83;84.38;100699.88;5010576;28;20038;-62
2023/01/01 09:14:36;;;;;;;4.18;1.70;;;;;;;9.70;84.93;100696.16;4991917;28;20385;-63
2023/01/01 09:17:03;;;;;;;6.28;1.98;;;;;;;9.65;85.10;100687.94;4996989;28;20485;-63
2023/01/01 09:19:29;;;;;;;7.32;1.95;;;;;;;9.84;84.23;100690.84;4991883;28;20036;-62
2023/01/01 09:21:55;;;;;;;4.43;1.88;;;;;;;9.69;85.14;100683.84;4996763;28;20065;-62
2023/01/01 09:24:22;;;;;;;7.88;1.85;;;;;;;9.71;85.08;100687.13;5011241;28;20033;-62
2023/01/01 09:26:48;;;;;;;3.70;1.35;;;;;;;9.71;84.45;100687.13;5006409;28;20117;-63
2023/01/01 09:29:20;;;;;;;2.97;1.40;;;;;;;9.60;84.13;100687.72;4995188;28;20058;-63
2023/01/01 09:31:48;;;;;;;6.47;1.58;;;;;;;9.62;83.50;100688.34;4997938;28;20026;-63
2023/01/01 09:34:15;;;;;;;3.53;1.20;;;;;;;9.60;83.41;100684.22;4996775;28;20426;-62
2023/01/01 09:36:41;;;;;;;4.03;1.70;;;;;;;9.54;83.25;100683.19;4996295;28;20046;-62
2023/01/01 09:39:11;;;;;;;6.65;1.42;;;;;;;9.57;83.09;100681.97;4997470;28;20038;-62
2023/01/01 09:42:12;;;;;;;3.53;1.35;;;;;;;9.57;82.89;100688.16;4995781;28;20014;-63
2023/01/01 09:44:53;;;;;;;3.63;1.02;;;;;;;9.53;82.99;100692.25;5012187;28;20034;-62
2023/01/01 09:47:32;;;;;;;4.50;1.10;;;;;;;9.65;82.23;100685.25;5011561;28;20030;-63
2023/01/01 09:50:05;;;;;;;5.93;1.90;;;;;;;9.50;83.12;100685.47;5014217;28;20392;-62
2023/01/01 09:52:50;;;;;;;3.58;1.35;;;;;;;9.57;82.47;100690.00;5001314;28;20500;-62
2023/01/01 09:55:25;;;;;;;3.45;1.15;;;;;;;9.42;83.00;100696.31;4997876;28;20033;-62
2023/01/01 09:57:51;;;;;;;3.05;1.17;;;;;;;9.49;83.20;100699.00;5014298;28;20109;-62
2023/01/01 10:00:19;;;;;;;3.78;1.35;;;;;;;9.45;83.31;100703.94;5014221;28;20045;-62
2023/01/01 10:03:18;;;;;;;3.17;1.27;;;;;;;9.35;83.82;100708.84;5014678;28;20456;-62
2023/01/01 10:06:42;;;;;;;3.60;1.13;;;;;;;9.31;84.62;100717.47;5009016;28;20048;-62
2023/01/01 10:09:25;;;;;;;2.58;1.45;;;;;;;9.20;85.13;100721.53;4934506;29;20541;-62
2023/01/01 10:12:10;;;;;;;3.15;1.13;;;;;;;9.29;84.98;100719.50;4934601;29;20069;-62
2023/01/01 10:14:42;;;;;;;7.15;1.95;;;;;;;9.21;84.55;100721.31;4977021;28;20508;-62
2023/01/01 10:17:32;;;;;;;3.63;1.80;;;;;;;9.11;85.17;100718.22;5010250;28;20491;-62
2023/01/01 10:20:03;;;;;;;4.72;1.95;;;;;;;9.15;85.06;100715.97;5014382;28;20037;-62
2023/01/01 10:22:39;;;;;;;8.00;2.03;;;;;;;9.18;85.15;100713.72;5013782;28;20052;-63
2023/01/01 10:25:18;;;;;;;7.65;2.20;;;;;;;9.09;83.32;100722.91;5013955;28;20026;-62
2023/01/01 10:27:50;;;;;;;3.67;1.15;;;;;;;9.33;81.89;100715.41;5013391;28;20030;-62
2023/01/01 10:30:19;;;;;;;3.70;1.80;;;;;;;9.26;82.38;100712.72;5003182;28;20054;-62
2023/01/01 10:32:49;;;;;;;3.05;1.27;;;;;;;9.23;82.21;100711.28;4999123;28;20034;-62
2023/01/01 10:35:21;;;;;;;7.50;1.88;;;;;;;9.20;82.19;100726.88;4994307;28;20030;-62
2023/01/01 10:37:51;;;;;;;3.97;1.35;;;;;;;9.21;81.70;100725.84;5012188;28;20060;-62
2023/01/01 10:40:23;;;;;;;4.30;1.40;;;;;;;9.06;81.16;100725.19;5013162;28;20084;-62
2023/01/01 10:42:58;;;;;;;4.47;1.63;;;;;;;9.12;81.39;100729.72;5012882;28;20069;-62
2023/01/01 10:45:38;;;;;;;4.00;1.20;;;;;;;8.89;82.04;100725.50;5013729;28;20041;-61
2023/01/01 10:48:21;;;;;;;3.10;1.23;;;;;;;8.88;82.44;100721.19;5005099;28;20046;-62
2023/01/01 10:50:51;;;;;;;4.57;1.23;;;;;;;8.84;82.73;100722.63;4994971;28;20109;-62
2023/01/01 10:53:51;;;;;;;3.00;1.40;;;;;;;8.91;82.80;100734.13;5013011;28;20080;-62
2023/01/01 10:56:20;;;;;;;3.70;1.30;;;;;;;8.86;82.37;100731.22;4944971;28;20472;-62
2023/01/01 10:58:49;;;;;;;3.90;1.10;;;;;;;8.90;82.00;100731.69;4993601;28;20034;-62
2023/01/01 11:01:23;;;;;;;3.05;1.10;;;;;;;8.84;81.70;100737.81;5004158;28;20026;-63
2023/01/01 11:04:12;;;;;;;4.40;1.48;;;;;;;8.90;81.29;100734.34;5013091;28;20021;-62
2023/01/01 11:06:45;;;;;;;3.08;1.35;;;;;;;8.87;80.94;100732.88;5012094;28;20045;-63
2023/01/01 11:09:22;;;;;;;4.38;1.58;;;;;;;8.78;81.09;100750.09;5012831;28;20033;-63
2023/01/01 11:11:59;;;;;;;1.73;1.10;;;;;;;8.80;80.82;100753.38;5012623;28;20243;-63
2023/01/01 11:14:28;;;;;;;3.75;1.25;;;;;;;8.79;80.33;100761.59;5013023;28;20480;-63
2023/01/01 11:16:56;;;;;;;4.25;1.20;;;;;;;8.78;80.09;100765.28;5012338;28;20061;-63
2023/01/01 11:19:29;;;;;;;2.45;1.40;;;;;;;8.70;80.38;100764.38;5012955;28;20476;-62
2023/01/01 11:21:56;;;;;;;3.75;1.75;;;;;;;8.73;80.26;100769.34;5012535;28;20484;-63
2023/01/01 11:24:28;;;;;;;4.45;1.80;;;;;;;8.75;80.28;100777.16;5007546;28;20033;-63
2023/01/01 11:27:11;;;;;;;3.72;1.52;;;;;;;8.76;80.78;100777.97;5006457;28;20034;-62
2023/01/01 11:29:37;;;;;;;3.22;1.30;;;;;;;8.77;80.80;100777.78;5012863;28;20029;-62
2023/01/01 11:32:07;;;;;;;3.17;1.00;;;;;;;8.65;80.79;100779.34;5012143;28;20026;-63
2023/01/01 11:34:40;;;;;;;2.05;1.00;;;;;;;8.56;81.45;100773.34;5012571;28;20025;-62
2023/01/01 11:37:38;;;;;;;4.95;1.40;;;;;;;8.35;82.06;100774.16;5011920;28;20042;-63
2023/01/01 11:40:14;;;;;;;2.60;0.98;;;;;;;8.42;81.91;100772.41;4969319;28;20034;-63
2023/01/01 11:42:47;;;;;;;2.92;1.15;;;;;;;8.44;81.49;100780.22;5012491;28;20030;-62
2023/01/01 11:45:33;;;;;;;3.10;1.10;;;;;;;8.37;81.72;100785.50;4995294;28;20480;-63
2023/01/01 11:48:00;;;;;;;;;;;;;;;8.41;81.56;100785.94;5011282;28;20044;-63